Darstellungsparameter: Aktuell verwendete Einstellungen:
Skalierung der Graphiken ... ?
xyx+y,   Skalierungsfaktor:      Skalierung: Modus: x, Faktor: 1
Darstellungszeitraum ... ?
Vom - - bis: - -   Zeitraum: 14.02.2021 - 14.02.2021
Min/Max/Avg-Anzeige ... ?
Zeige MMA aktuell
Zeige MMA Monat
Zeige MMA alles
Zeige --A aktuell
Zeige --A Monat
Zeige --A alles
Keine MMA-Anzeige
MMA:
Average (ber die Originaldaten)
MMA-Basis: 14.02.2021 - 14.02.2021
Quicknavigation für Darstellung... ?
Tage:      1T, 2T, 3T, 5T -1T -2T -3T -5T +1T +2T +3T +5T
Wochen: 1W, 2W, 3W -1W -2W -3W +1W +2W +3W
Monate: 1M, 3M, 6M -1M -3M -6M +1M +3M +6M
Jahre:    1J, 3J, 5J, 10J -1J -3J -5J -10J +1J +3J +5J +10J
Nutze für die Darstellung ... ?
Originaldaten oder Mittelwerte auf ...
Stundenbasis Tagesbasis Wochenbasis
Monatsbasis Jahresbasis      Datenbasis: Original-Daten
Darstellen als:
Statistik (Auto) Statistik J:M      Darstellung:
Zur Graphik,    zurück zur Übersicht aller Sensoren.
 
Tabellarische Datenbersicht: ?
 
Sensor: Nr:Datum:Temp:Abs-Feuchte:Windchill:Wind:
Aussen-T/F 1 14-02-2021 00:00:00 -7.1 C 2.54 g/m*3 -7.1 C 0 km/h
2 14-02-2021 00:05:00 -7.2 C 2.52 g/m*3 -7.2 C 3.2 km/h
3 14-02-2021 00:10:00 -7.3 C 2.53 g/m*3 -7.3 C 3.2 km/h
4 14-02-2021 00:15:00 -7.3 C 2.53 g/m*3 -7.3 C 3.2 km/h
5 14-02-2021 00:20:00 -7.3 C 2.53 g/m*3 -7.3 C 3.2 km/h
6 14-02-2021 00:25:00 -7.3 C 2.53 g/m*3 -7.3 C 3.2 km/h
7 14-02-2021 00:30:00 -7.4 C 2.52 g/m*3 -7.4 C 0 km/h
8 14-02-2021 00:35:00 -7.4 C 2.52 g/m*3 -7.4 C 0 km/h
9 14-02-2021 00:40:00 -7.5 C 2.5 g/m*3 -7.5 C 0 km/h
10 14-02-2021 00:45:00 -7.6 C 2.51 g/m*3 -7.6 C 0 km/h
11 14-02-2021 00:50:00 -7.6 C 2.48 g/m*3 -7.6 C 0 km/h
12 14-02-2021 00:55:00 -7.7 C 2.49 g/m*3 -7.7 C 0 km/h
13 14-02-2021 01:00:00 -7.8 C 2.47 g/m*3 -7.8 C 0 km/h
14 14-02-2021 01:05:00 -7.9 C 2.45 g/m*3 -7.9 C 0 km/h
15 14-02-2021 01:10:00 -7.9 C 2.45 g/m*3 -7.9 C 0 km/h
16 14-02-2021 01:15:00 -8 C 2.43 g/m*3 -8 C 0 km/h
17 14-02-2021 01:20:00 -8.1 C 2.42 g/m*3 -8.1 C 1.6 km/h
18 14-02-2021 01:25:00 -8.1 C 2.42 g/m*3 -8.1 C 3.2 km/h
19 14-02-2021 01:30:00 -8.2 C 2.43 g/m*3 -8.2 C 1.6 km/h
20 14-02-2021 01:35:00 -8.2 C 2.43 g/m*3 -8.2 C 1.6 km/h
21 14-02-2021 01:40:00 -8.2 C 2.43 g/m*3 -8.2 C 0 km/h
22 14-02-2021 01:45:00 -8.3 C 2.41 g/m*3 -8.3 C 0 km/h
23 14-02-2021 01:50:00 -8.3 C 2.41 g/m*3 -8.3 C 3.2 km/h
24 14-02-2021 01:55:00 -8.3 C 2.41 g/m*3 -8.3 C 3.2 km/h
25 14-02-2021 02:00:00 -8.3 C 2.41 g/m*3 -8.3 C 3.2 km/h
Sensor: Nr:Datum:Temp:Abs-Feuchte:Windchill:Wind:
Aussen-T/F 26 14-02-2021 02:05:00 -8.3 C 2.41 g/m*3 -8.3 C 3.2 km/h
27 14-02-2021 02:10:00 -8.3 C 2.43 g/m*3 -8.3 C 3.2 km/h
28 14-02-2021 02:15:00 -8.3 C 2.41 g/m*3 -8.3 C 3.2 km/h
29 14-02-2021 02:20:00 -8.3 C 2.43 g/m*3 -8.3 C 3.2 km/h
30 14-02-2021 02:25:00 -8.3 C 2.43 g/m*3 -8.3 C 3.2 km/h
31 14-02-2021 02:30:00 -8.3 C 2.43 g/m*3 -8.3 C 4.8 km/h
32 14-02-2021 02:35:00 -8.2 C 2.45 g/m*3 -8.2 C 4.8 km/h
33 14-02-2021 02:40:00 -8.2 C 2.45 g/m*3 -8.2 C 4.8 km/h
34 14-02-2021 02:45:00 -8.1 C 2.47 g/m*3 -8.1 C 4.8 km/h
35 14-02-2021 02:50:00 -8.1 C 2.47 g/m*3 -8.1 C 4.8 km/h
36 14-02-2021 02:55:00 -7.9 C 2.51 g/m*3 -7.9 C 4.8 km/h
37 14-02-2021 03:00:00 -7.9 C 2.51 g/m*3 -7.9 C 4.8 km/h
38 14-02-2021 03:05:00 -7.9 C 2.51 g/m*3 -7.9 C 3.2 km/h
39 14-02-2021 03:10:00 -7.9 C 2.51 g/m*3 -7.9 C 4.8 km/h
40 14-02-2021 03:15:00 -7.9 C 2.51 g/m*3 -7.9 C 3.2 km/h
41 14-02-2021 03:20:00 -7.9 C 2.51 g/m*3 -7.9 C 4.8 km/h
42 14-02-2021 03:25:00 -7.9 C 2.51 g/m*3 -7.9 C 3.2 km/h
43 14-02-2021 03:30:00 -7.9 C 2.51 g/m*3 -7.9 C 3.2 km/h
44 14-02-2021 03:35:00 -7.9 C 2.51 g/m*3 -7.9 C 1.6 km/h
45 14-02-2021 03:40:00 -7.9 C 2.51 g/m*3 -7.9 C 0 km/h
46 14-02-2021 03:45:00 -8 C 2.49 g/m*3 -8 C 0 km/h
47 14-02-2021 03:50:00 -8.2 C 2.43 g/m*3 -8.2 C 0 km/h
48 14-02-2021 03:55:00 -8.3 C 2.41 g/m*3 -8.3 C 0 km/h
49 14-02-2021 04:00:00 -8.3 C 2.41 g/m*3 -8.3 C 3.2 km/h
50 14-02-2021 04:05:00 -8.4 C 2.39 g/m*3 -8.4 C 3.2 km/h
Sensor: Nr:Datum:Temp:Abs-Feuchte:Windchill:Wind:
Aussen-T/F 51 14-02-2021 04:10:00 -8.4 C 2.42 g/m*3 -8.4 C 3.2 km/h
52 14-02-2021 04:15:00 -8.4 C 2.42 g/m*3 -8.4 C 1.6 km/h
53 14-02-2021 04:20:00 -8.5 C 2.4 g/m*3 -8.5 C 0 km/h
54 14-02-2021 04:25:00 -8.6 C 2.38 g/m*3 -8.6 C 3.2 km/h
55 14-02-2021 04:30:00 -8.6 C 2.38 g/m*3 -8.6 C 0 km/h
56 14-02-2021 04:35:00 -8.7 C 2.36 g/m*3 -8.7 C 0 km/h
57 14-02-2021 04:40:00 -8.7 C 2.36 g/m*3 -8.7 C 3.2 km/h
58 14-02-2021 04:45:00 -8.7 C 2.36 g/m*3 -8.7 C 3.2 km/h
59 14-02-2021 04:50:00 -8.7 C 2.36 g/m*3 -8.7 C 1.6 km/h
60 14-02-2021 04:55:00 -8.6 C 2.38 g/m*3 -8.6 C 0 km/h
61 14-02-2021 05:00:00 -8.6 C 2.41 g/m*3 -8.6 C 0 km/h
62 14-02-2021 05:05:00 -8.6 C 2.41 g/m*3 -8.6 C 1.6 km/h
63 14-02-2021 05:10:00 -8.6 C 2.41 g/m*3 -8.6 C 3.2 km/h
64 14-02-2021 05:15:00 -8.6 C 2.41 g/m*3 -8.6 C 3.2 km/h
65 14-02-2021 05:20:00 -8.6 C 2.41 g/m*3 -8.6 C 1.6 km/h
66 14-02-2021 05:25:00 -8.6 C 2.38 g/m*3 -8.6 C 0 km/h
67 14-02-2021 05:30:00 -8.7 C 2.36 g/m*3 -8.7 C 3.2 km/h
68 14-02-2021 05:35:00 -8.7 C 2.36 g/m*3 -8.7 C 3.2 km/h
69 14-02-2021 05:40:00 -8.7 C 2.36 g/m*3 -8.7 C 1.6 km/h
70 14-02-2021 05:45:00 -8.7 C 2.36 g/m*3 -8.7 C 1.6 km/h
71 14-02-2021 05:50:00 -8.8 C 2.35 g/m*3 -8.8 C 3.2 km/h
72 14-02-2021 05:55:00 -8.8 C 2.35 g/m*3 -8.8 C 3.2 km/h
73 14-02-2021 06:00:00 -8.8 C 2.37 g/m*3 -8.8 C 1.6 km/h
74 14-02-2021 06:05:00 -8.8 C 2.35 g/m*3 -8.8 C 0 km/h
75 14-02-2021 06:10:00 -8.9 C 2.33 g/m*3 -8.9 C 1.6 km/h
Sensor: Nr:Datum:Temp:Abs-Feuchte:Windchill:Wind:
Aussen-T/F 76 14-02-2021 06:15:00 -8.9 C 2.33 g/m*3 -8.9 C 1.6 km/h
77 14-02-2021 06:20:00 -8.9 C 2.33 g/m*3 -8.9 C 3.2 km/h
78 14-02-2021 06:25:00 -8.9 C 2.35 g/m*3 -8.9 C 0 km/h
79 14-02-2021 06:30:00 -9 C 2.34 g/m*3 -9 C 0 km/h
80 14-02-2021 06:35:00 -9 C 2.34 g/m*3 -9 C 3.2 km/h
81 14-02-2021 06:40:00 -9 C 2.34 g/m*3 -9 C 3.2 km/h
82 14-02-2021 06:45:00 -9 C 2.34 g/m*3 -9 C 1.6 km/h
83 14-02-2021 06:50:00 -9.1 C 2.32 g/m*3 -9.1 C 0 km/h
84 14-02-2021 06:55:00 -9.1 C 2.32 g/m*3 -9.1 C 0 km/h
85 14-02-2021 07:00:00 -9.2 C 2.28 g/m*3 -9.2 C 0 km/h
86 14-02-2021 07:05:00 -9.3 C 2.26 g/m*3 -9.3 C 0 km/h
87 14-02-2021 07:10:00 -9.4 C 2.24 g/m*3 -9.4 C 0 km/h
88 14-02-2021 07:15:00 -9.4 C 2.24 g/m*3 -9.4 C 0 km/h
89 14-02-2021 07:20:00 -9.6 C 2.21 g/m*3 -9.6 C 1.6 km/h
90 14-02-2021 07:25:00 -9.6 C 2.21 g/m*3 -9.6 C 3.2 km/h
91 14-02-2021 07:30:00 -9.6 C 2.23 g/m*3 -9.6 C 1.6 km/h
92 14-02-2021 07:35:00 -9.5 C 2.25 g/m*3 -9.5 C 0 km/h
93 14-02-2021 07:40:00 -9.5 C 2.25 g/m*3 -9.5 C 0 km/h
94 14-02-2021 07:45:00 -9.6 C 2.23 g/m*3 -9.6 C 0 km/h
95 14-02-2021 07:50:00 -9.6 C 2.23 g/m*3 -9.6 C 0 km/h
96 14-02-2021 07:55:00 -9.6 C 2.23 g/m*3 -9.6 C 0 km/h
97 14-02-2021 08:00:00 -9.6 C 2.23 g/m*3 -9.6 C 0 km/h
98 14-02-2021 08:05:00 -9.6 C 2.23 g/m*3 -9.6 C 0 km/h
99 14-02-2021 08:10:00 -9.5 C 2.25 g/m*3 -9.5 C 1.6 km/h
100 14-02-2021 08:15:00 -9.4 C 2.27 g/m*3 -9.4 C 3.2 km/h
Sensor: Nr:Datum:Temp:Abs-Feuchte:Windchill:Wind:
Aussen-T/F 101 14-02-2021 08:20:00 -9.4 C 2.27 g/m*3 -9.4 C 3.2 km/h
102 14-02-2021 08:25:00 -9.3 C 2.28 g/m*3 -9.3 C 1.6 km/h
103 14-02-2021 08:30:00 -9.3 C 2.28 g/m*3 -9.3 C 0 km/h
104 14-02-2021 08:35:00 -9.2 C 2.3 g/m*3 -9.2 C 1.6 km/h
105 14-02-2021 08:40:00 -9.2 C 2.3 g/m*3 -9.2 C 0 km/h
106 14-02-2021 08:45:00 -9.2 C 2.3 g/m*3 -9.2 C 3.2 km/h
107 14-02-2021 08:50:00 -9.1 C 2.32 g/m*3 -9.1 C 3.2 km/h
108 14-02-2021 08:55:00 -9 C 2.36 g/m*3 -9 C 3.2 km/h
109 14-02-2021 09:00:00 -8.8 C 2.4 g/m*3 -8.8 C 3.2 km/h
110 14-02-2021 09:05:00 -8.7 C 2.41 g/m*3 -8.7 C 3.2 km/h
111 14-02-2021 09:10:00 -8.6 C 2.43 g/m*3 -8.6 C 4.8 km/h
112 14-02-2021 09:15:00 -8.5 C 2.45 g/m*3 -8.5 C 3.2 km/h
113 14-02-2021 09:20:00 -8.4 C 2.47 g/m*3 -8.4 C 3.2 km/h
114 14-02-2021 09:25:00 -8.3 C 2.49 g/m*3 -11.77 C 6.4 km/h
115 14-02-2021 09:30:00 -8.1 C 2.52 g/m*3 -8.1 C 4.8 km/h
116 14-02-2021 09:35:00 -8 C 2.54 g/m*3 -8 C 4.8 km/h
117 14-02-2021 09:40:00 -7.8 C 2.58 g/m*3 -7.8 C 4.8 km/h
118 14-02-2021 09:45:00 -7.7 C 2.6 g/m*3 -7.7 C 4.8 km/h
119 14-02-2021 09:50:00 -7.6 C 2.62 g/m*3 -7.6 C 4.8 km/h
120 14-02-2021 09:55:00 -7.5 C 2.64 g/m*3 -7.5 C 4.8 km/h
121 14-02-2021 10:00:00 -7.3 C 2.68 g/m*3 -7.3 C 4.8 km/h
122 14-02-2021 10:05:00 -7.2 C 2.7 g/m*3 -7.2 C 4.8 km/h
123 14-02-2021 10:10:00 -7.1 C 2.72 g/m*3 -7.1 C 3.2 km/h
124 14-02-2021 10:15:00 -6.9 C 2.76 g/m*3 -6.9 C 4.8 km/h
125 14-02-2021 10:20:00 -6.8 C 2.78 g/m*3 -10.04 C 6.4 km/h
Sensor: Nr:Datum:Temp:Abs-Feuchte:Windchill:Wind:
Aussen-T/F 126 14-02-2021 10:25:00 -6.7 C 2.8 g/m*3 -6.7 C 4.8 km/h
127 14-02-2021 10:30:00 -6.6 C 2.82 g/m*3 -6.6 C 4.8 km/h
128 14-02-2021 10:35:00 -6.4 C 2.86 g/m*3 -6.4 C 3.2 km/h
129 14-02-2021 10:40:00 -6.3 C 2.88 g/m*3 -6.3 C 4.8 km/h
130 14-02-2021 10:45:00 -6.2 C 2.9 g/m*3 -6.2 C 3.2 km/h
131 14-02-2021 10:50:00 -6.1 C 2.92 g/m*3 -6.1 C 4.8 km/h
132 14-02-2021 10:55:00 -5.9 C 2.97 g/m*3 -5.9 C 3.2 km/h
133 14-02-2021 11:00:00 -5.7 C 3.01 g/m*3 -5.7 C 3.2 km/h
134 14-02-2021 11:05:00 -5.4 C 3.08 g/m*3 -8.42 C 6.4 km/h
135 14-02-2021 11:10:00 -5.1 C 3.14 g/m*3 -8.07 C 6.4 km/h
136 14-02-2021 11:15:00 -4.9 C 3.19 g/m*3 -4.9 C 4.8 km/h
137 14-02-2021 11:20:00 -4.6 C 3.26 g/m*3 -7.5 C 6.4 km/h
138 14-02-2021 11:25:00 -4.3 C 3.33 g/m*3 -4.3 C 4.8 km/h
139 14-02-2021 11:30:00 -4.1 C 3.38 g/m*3 -4.1 C 4.8 km/h
140 14-02-2021 11:35:00 -3.9 C 3.39 g/m*3 -3.9 C 1.6 km/h
141 14-02-2021 11:40:00 -3.7 C 3.44 g/m*3 -3.7 C 3.2 km/h
142 14-02-2021 11:45:00 -3.4 C 3.51 g/m*3 -6.11 C 6.4 km/h
143 14-02-2021 11:50:00 -3.2 C 3.52 g/m*3 -5.88 C 6.4 km/h
144 14-02-2021 11:55:00 -3 C 3.54 g/m*3 -5.65 C 6.4 km/h
145 14-02-2021 12:00:00 -2.8 C 3.59 g/m*3 -2.8 C 4.8 km/h
146 14-02-2021 12:05:00 -2.6 C 3.6 g/m*3 -5.19 C 6.4 km/h
147 14-02-2021 12:10:00 -2.4 C 3.65 g/m*3 -2.4 C 4.8 km/h
148 14-02-2021 12:15:00 -2.2 C 3.62 g/m*3 -2.2 C 3.2 km/h
149 14-02-2021 12:20:00 -1.9 C 3.69 g/m*3 -1.9 C 4.8 km/h
150 14-02-2021 12:25:00 -1.7 C 3.66 g/m*3 -4.15 C 6.4 km/h
Sensor: Nr:Datum:Temp:Abs-Feuchte:Windchill:Wind:
Aussen-T/F 151 14-02-2021 12:30:00 -1.4 C 3.74 g/m*3 -3.8 C 6.4 km/h
152 14-02-2021 12:35:00 -1.2 C 3.79 g/m*3 -3.57 C 6.4 km/h
153 14-02-2021 12:40:00 -0.9 C 3.78 g/m*3 -0.9 C 4.8 km/h
154 14-02-2021 12:45:00 -0.7 C 3.83 g/m*3 -0.7 C 4.8 km/h
155 14-02-2021 12:50:00 -0.5 C 3.84 g/m*3 -0.5 C 4.8 km/h
156 14-02-2021 12:55:00 -0.3 C 3.8 g/m*3 -3.12 C 8.1 km/h
157 14-02-2021 13:00:00 -0.1 C 3.66 g/m*3 -0.1 C 3.2 km/h
158 14-02-2021 13:05:00 0.2 C 3.78 g/m*3 0.2 C 4.8 km/h
159 14-02-2021 13:10:00 0.4 C 3.64 g/m*3 -1.72 C 6.4 km/h
160 14-02-2021 13:15:00 0.7 C 3.51 g/m*3 0.7 C 4.8 km/h
161 14-02-2021 13:20:00 1 C 3.37 g/m*3 1 C 4.8 km/h
162 14-02-2021 13:25:00 1.3 C 3.28 g/m*3 1.3 C 1.6 km/h
163 14-02-2021 13:30:00 1.6 C 3.46 g/m*3 -0.33 C 6.4 km/h
164 14-02-2021 13:35:00 1.9 C 3.37 g/m*3 0.01 C 6.4 km/h
165 14-02-2021 13:40:00 2.2 C 3.04 g/m*3 -0.61 C 9.7 km/h
166 14-02-2021 13:45:00 2.5 C 3.05 g/m*3 0.71 C 6.4 km/h
167 14-02-2021 13:50:00 2.7 C 3.15 g/m*3 -1 C 14.5 km/h
168 14-02-2021 13:55:00 2.9 C 3.19 g/m*3 1.17 C 6.4 km/h
169 14-02-2021 14:00:00 3.2 C 2.83 g/m*3 0.99 C 8.1 km/h
170 14-02-2021 14:05:00 3.4 C 2.99 g/m*3 0.46 C 11.3 km/h
171 14-02-2021 14:10:00 3.6 C 2.79 g/m*3 1.46 C 8.1 km/h
172 14-02-2021 14:15:00 3.7 C 2.93 g/m*3 2.09 C 6.4 km/h
173 14-02-2021 14:20:00 3.7 C 2.74 g/m*3 0.82 C 11.3 km/h
174 14-02-2021 14:25:00 3.8 C 2.89 g/m*3 2.21 C 6.4 km/h
175 14-02-2021 14:30:00 3.8 C 2.89 g/m*3 0.1 C 16.1 km/h
Sensor: Nr:Datum:Temp:Abs-Feuchte:Windchill:Wind:
Aussen-T/F 176 14-02-2021 14:35:00 3.8 C 2.63 g/m*3 0.1 C 16.1 km/h
177 14-02-2021 14:40:00 3.8 C 2.82 g/m*3 1.7 C 8.1 km/h
178 14-02-2021 14:45:00 3.8 C 2.82 g/m*3 3.8 C 3.2 km/h
179 14-02-2021 14:50:00 3.9 C 2.72 g/m*3 1.82 C 8.1 km/h
180 14-02-2021 14:55:00 3.9 C 2.91 g/m*3 3.9 C 4.8 km/h
181 14-02-2021 15:00:00 3.9 C 2.84 g/m*3 3.9 C 4.8 km/h
182 14-02-2021 15:05:00 3.8 C 2.82 g/m*3 3.8 C 4.8 km/h
183 14-02-2021 15:10:00 3.7 C 2.68 g/m*3 3.7 C 4.8 km/h
184 14-02-2021 15:15:00 3.6 C 2.85 g/m*3 0.7 C 11.3 km/h
185 14-02-2021 15:20:00 3.6 C 2.79 g/m*3 1.98 C 6.4 km/h
186 14-02-2021 15:25:00 3.6 C 2.91 g/m*3 1.98 C 6.4 km/h
187 14-02-2021 15:30:00 3.6 C 2.85 g/m*3 1.98 C 6.4 km/h
188 14-02-2021 15:35:00 3.7 C 2.93 g/m*3 3.7 C 4.8 km/h
189 14-02-2021 15:40:00 3.7 C 2.8 g/m*3 3.7 C 4.8 km/h
190 14-02-2021 15:45:00 3.7 C 2.99 g/m*3 3.7 C 4.8 km/h
191 14-02-2021 15:50:00 3.8 C 2.82 g/m*3 2.21 C 6.4 km/h
192 14-02-2021 15:55:00 4 C 2.92 g/m*3 2.44 C 6.4 km/h
193 14-02-2021 16:00:00 4.1 C 3.14 g/m*3 4.1 C 3.2 km/h
194 14-02-2021 16:05:00 4 C 3.31 g/m*3 4 C 4.8 km/h
195 14-02-2021 16:10:00 3.8 C 3.01 g/m*3 3.8 C 4.8 km/h
196 14-02-2021 16:15:00 3.7 C 3.05 g/m*3 3.7 C 3.2 km/h
197 14-02-2021 16:20:00 3.5 C 2.83 g/m*3 3.5 C 3.2 km/h
198 14-02-2021 16:25:00 3.3 C 3.4 g/m*3 3.3 C 4.8 km/h
199 14-02-2021 16:30:00 3.2 C 3.25 g/m*3 3.2 C 1.6 km/h
200 14-02-2021 16:35:00 2.9 C 3.37 g/m*3 2.9 C 4.8 km/h
Sensor: Nr:Datum:Temp:Abs-Feuchte:Windchill:Wind:
Aussen-T/F 201 14-02-2021 16:40:00 2.7 C 3.44 g/m*3 2.7 C 3.2 km/h
202 14-02-2021 16:45:00 2.4 C 3.48 g/m*3 2.4 C 4.8 km/h
203 14-02-2021 16:50:00 2.3 C 3.57 g/m*3 2.3 C 3.2 km/h
204 14-02-2021 16:55:00 2.2 C 3.6 g/m*3 2.2 C 4.8 km/h
205 14-02-2021 17:00:00 2.1 C 3.64 g/m*3 0.24 C 6.4 km/h
206 14-02-2021 17:05:00 1.9 C 3.7 g/m*3 0.01 C 6.4 km/h
207 14-02-2021 17:10:00 1.8 C 3.67 g/m*3 1.8 C 4.8 km/h
208 14-02-2021 17:15:00 1.6 C 3.68 g/m*3 1.6 C 4.8 km/h
209 14-02-2021 17:20:00 1.4 C 3.63 g/m*3 1.4 C 4.8 km/h
210 14-02-2021 17:25:00 1.2 C 3.68 g/m*3 1.2 C 4.8 km/h
211 14-02-2021 17:30:00 1.1 C 3.61 g/m*3 1.1 C 4.8 km/h
212 14-02-2021 17:35:00 0.9 C 3.61 g/m*3 0.9 C 4.8 km/h
213 14-02-2021 17:40:00 0.8 C 3.63 g/m*3 -1.26 C 6.4 km/h
214 14-02-2021 17:45:00 0.6 C 3.64 g/m*3 -1.49 C 6.4 km/h
215 14-02-2021 17:50:00 0.4 C 3.59 g/m*3 0.4 C 4.8 km/h
216 14-02-2021 17:55:00 0.3 C 3.61 g/m*3 0.3 C 4.8 km/h
217 14-02-2021 18:00:00 0.2 C 3.54 g/m*3 0.2 C 3.2 km/h
218 14-02-2021 18:05:00 0.1 C 3.56 g/m*3 0.1 C 4.8 km/h
219 14-02-2021 18:10:00 0.1 C 3.61 g/m*3 0.1 C 4.8 km/h
220 14-02-2021 18:15:00 -0.1 C 3.56 g/m*3 -0.1 C 4.8 km/h
221 14-02-2021 18:20:00 -0.1 C 3.56 g/m*3 -0.1 C 4.8 km/h
222 14-02-2021 18:25:00 -0.2 C 3.58 g/m*3 -0.2 C 4.8 km/h
223 14-02-2021 18:30:00 -0.2 C 3.58 g/m*3 -0.2 C 3.2 km/h
224 14-02-2021 18:35:00 -0.2 C 3.63 g/m*3 -0.2 C 4.8 km/h
225 14-02-2021 18:40:00 -0.3 C 3.56 g/m*3 -0.3 C 4.8 km/h
Sensor: Nr:Datum:Temp:Abs-Feuchte:Windchill:Wind:
Aussen-T/F 226 14-02-2021 18:45:00 -0.3 C 3.56 g/m*3 -0.3 C 3.2 km/h
227 14-02-2021 18:50:00 -0.3 C 3.51 g/m*3 -2.53 C 6.4 km/h
228 14-02-2021 18:55:00 -0.3 C 3.56 g/m*3 -0.3 C 4.8 km/h
229 14-02-2021 19:00:00 -0.3 C 3.56 g/m*3 -0.3 C 4.8 km/h
230 14-02-2021 19:05:00 -0.3 C 3.56 g/m*3 -2.53 C 6.4 km/h
231 14-02-2021 19:10:00 -0.4 C 3.53 g/m*3 -2.64 C 6.4 km/h
232 14-02-2021 19:15:00 -0.4 C 3.53 g/m*3 -0.4 C 3.2 km/h
233 14-02-2021 19:20:00 -0.4 C 3.58 g/m*3 -0.4 C 4.8 km/h
234 14-02-2021 19:25:00 -0.4 C 3.58 g/m*3 -0.4 C 3.2 km/h
235 14-02-2021 19:30:00 -0.4 C 3.58 g/m*3 -0.4 C 3.2 km/h
236 14-02-2021 19:35:00 -0.4 C 3.58 g/m*3 -0.4 C 4.8 km/h
237 14-02-2021 19:40:00 -0.4 C 3.58 g/m*3 -2.64 C 6.4 km/h
238 14-02-2021 19:45:00 -0.4 C 3.58 g/m*3 -0.4 C 3.2 km/h
239 14-02-2021 19:50:00 -0.4 C 3.58 g/m*3 -0.4 C 4.8 km/h
240 14-02-2021 19:55:00 -0.4 C 3.58 g/m*3 -0.4 C 4.8 km/h
241 14-02-2021 20:00:00 -0.4 C 3.58 g/m*3 -0.4 C 4.8 km/h
242 14-02-2021 20:05:00 -0.5 C 3.51 g/m*3 -0.5 C 4.8 km/h
243 14-02-2021 20:10:00 -0.5 C 3.51 g/m*3 -0.5 C 4.8 km/h
244 14-02-2021 20:15:00 -0.6 C 3.49 g/m*3 -0.6 C 4.8 km/h
245 14-02-2021 20:20:00 -0.7 C 3.46 g/m*3 -2.99 C 6.4 km/h
246 14-02-2021 20:25:00 -0.7 C 3.42 g/m*3 -0.7 C 3.2 km/h
247 14-02-2021 20:30:00 -0.8 C 3.39 g/m*3 -0.8 C 4.8 km/h
248 14-02-2021 20:35:00 -0.9 C 3.37 g/m*3 -0.9 C 3.2 km/h
249 14-02-2021 20:40:00 -1.1 C 3.37 g/m*3 -1.1 C 4.8 km/h
250 14-02-2021 20:45:00 -1.2 C 3.34 g/m*3 -1.2 C 4.8 km/h
Sensor: Nr:Datum:Temp:Abs-Feuchte:Windchill:Wind:
Aussen-T/F 251 14-02-2021 20:50:00 -1.2 C 3.39 g/m*3 -1.2 C 4.8 km/h
252 14-02-2021 20:55:00 -1.3 C 3.36 g/m*3 -1.3 C 4.8 km/h
253 14-02-2021 21:00:00 -1.4 C 3.39 g/m*3 -1.4 C 4.8 km/h
254 14-02-2021 21:05:00 -1.4 C 3.43 g/m*3 -1.4 C 4.8 km/h
255 14-02-2021 21:10:00 -1.5 C 3.36 g/m*3 -1.5 C 4.8 km/h
256 14-02-2021 21:15:00 -1.6 C 3.38 g/m*3 -1.6 C 4.8 km/h
257 14-02-2021 21:20:00 -1.6 C 3.42 g/m*3 -1.6 C 3.2 km/h
258 14-02-2021 21:25:00 -1.6 C 3.38 g/m*3 -1.6 C 0 km/h
259 14-02-2021 21:30:00 -1.6 C 3.38 g/m*3 -1.6 C 3.2 km/h
260 14-02-2021 21:35:00 -1.6 C 3.38 g/m*3 -1.6 C 3.2 km/h
261 14-02-2021 21:40:00 -1.6 C 3.42 g/m*3 -1.6 C 3.2 km/h
262 14-02-2021 21:45:00 -1.6 C 3.42 g/m*3 -1.6 C 3.2 km/h
263 14-02-2021 21:50:00 -1.6 C 3.42 g/m*3 -1.6 C 4.8 km/h
264 14-02-2021 21:55:00 -1.7 C 3.4 g/m*3 -1.7 C 4.8 km/h
265 14-02-2021 22:00:00 -1.7 C 3.4 g/m*3 -1.7 C 1.6 km/h
266 14-02-2021 22:05:00 -1.8 C 3.38 g/m*3 -1.8 C 4.8 km/h
267 14-02-2021 22:10:00 -1.8 C 3.38 g/m*3 -1.8 C 0 km/h
268 14-02-2021 22:15:00 -1.9 C 3.35 g/m*3 -1.9 C 3.2 km/h
269 14-02-2021 22:20:00 -1.9 C 3.35 g/m*3 -1.9 C 3.2 km/h
270 14-02-2021 22:25:00 -1.9 C 3.4 g/m*3 -1.9 C 1.6 km/h
271 14-02-2021 22:30:00 -1.9 C 3.4 g/m*3 -1.9 C 1.6 km/h
272 14-02-2021 22:35:00 -1.9 C 3.4 g/m*3 -1.9 C 4.8 km/h
273 14-02-2021 22:40:00 -1.9 C 3.35 g/m*3 -1.9 C 4.8 km/h
274 14-02-2021 22:45:00 -1.9 C 3.35 g/m*3 -1.9 C 3.2 km/h
275 14-02-2021 22:50:00 -1.9 C 3.35 g/m*3 -1.9 C 3.2 km/h
Sensor: Nr:Datum:Temp:Abs-Feuchte:Windchill:Wind:
Aussen-T/F 276 14-02-2021 22:55:00 -1.9 C 3.35 g/m*3 -1.9 C 4.8 km/h
277 14-02-2021 23:00:00 -1.9 C 3.35 g/m*3 -1.9 C 4.8 km/h
278 14-02-2021 23:05:00 -2 C 3.29 g/m*3 -2 C 4.8 km/h
279 14-02-2021 23:10:00 -2 C 3.29 g/m*3 -2 C 4.8 km/h
280 14-02-2021 23:15:00 -2 C 3.2 g/m*3 -2 C 3.2 km/h
281 14-02-2021 23:20:00 -2 C 3.16 g/m*3 -2 C 1.6 km/h
282 14-02-2021 23:25:00 -2 C 3.12 g/m*3 -2 C 1.6 km/h
283 14-02-2021 23:30:00 -2.1 C 3.14 g/m*3 -2.1 C 1.6 km/h
284 14-02-2021 23:35:00 -2.1 C 3.06 g/m*3 -2.1 C 3.2 km/h
285 14-02-2021 23:40:00 -2 C 3.03 g/m*3 -2 C 4.8 km/h
286 14-02-2021 23:45:00 -1.9 C 3.06 g/m*3 -1.9 C 3.2 km/h
287 14-02-2021 23:50:00 -1.8 C 3.04 g/m*3 -4.26 C 6.4 km/h
288 14-02-2021 23:55:00 -1.7 C 3.1 g/m*3 -1.7 C 3.2 km/h

Legende:
   Min
   Max


Maximal/Minimal-Werte vom 14.02.2021 - 14.02.2021

Sensor Min Max Avg
Temp
(Aussen-T/F)
-9.6 °C
14-02-2021  07:20:00
4.1 °C
14-02-2021  16:00:00
-3.78 °C
Abs-Feuchte
(Aussen-T/F)
2.21 g/m*3
14-02-2021  07:20:00
3.84 g/m*3
14-02-2021  12:50:00
2.92 g/m*3
Windchill
(Aussen-T/F)
-11.77 C
14-02-2021  09:25:00
4.1 C
14-02-2021  16:00:00
-4.15 C

Die Daten stammen von einer Davis Vantage Pro 2 Wetter-Station und werden unter Linux mit der Software wview2wettercgi und aufbereitet. Alle Angaben erfolgen ohne Gewähr für ihre Vollständigkeit oder Richtigkeit.
Kontakt: Rainer Krienke krienke@uni-koblenz.de . Meine Webseiten an der Uni Koblenz oder privat.
Version: $Revision: 0.78 $